Alexander von Humboldt II — DDKK2 — position and weather

sailwx.info

Track history (hours):
 
Tides and Currents Weather Stations Pressure Air Temp Water Temp Dewpoint Dewpoint Depression Visibility Wind Speed Wind Dir Waves Ship Positions

Alexander von Humboldt II

Ship's website: https://www.alex-2.de/en/

Last reported at 2020-Sep-26 09:29 UTC. Time now 2020-Sep-26 10:06 UTC.
Position N 53°33' E 008°34'.

Length 65 m; draft 4.8 m.

Type: Sailing vessel. MMSI: 218768000.

Date/timePositionNaut miles runAvg speedWind from/ knotsBaromVisibWave heightAir tempDewpointWater temp
2020-Sep-26 09:29N 53°33' E 008°34'0 0.0
2020-Sep-26 07:59N 53°33' E 008°34'0 0.0
2020-Sep-26 07:29N 53°33' E 008°34'0 0.0
2020-Sep-26 06:59N 53°33' E 008°34'0 0.0
2020-Sep-26 06:29N 53°33' E 008°34'0 0.0
2020-Sep-26 05:29N 53°33' E 008°34'0 0.0
2020-Sep-26 00:29N 53°33' E 008°34'0 0.0
2020-Sep-25 23:29N 53°33' E 008°34'0 0.0
2020-Sep-25 20:29N 53°33' E 008°34'0 0.0
2020-Sep-25 19:29N 53°33' E 008°34'0 0.0
2020-Sep-25 14:29N 53°33' E 008°34'0 0.0
2020-Sep-25 13:59N 53°33' E 008°34'0 0.0
2020-Sep-25 13:29N 53°33' E 008°34'0 0.0
2020-Sep-25 08:29N 53°33' E 008°34'0 0.0
2020-Sep-25 07:29N 53°33' E 008°34'0 0.1
2020-Sep-25 07:01N 53°33' E 008°34'1 0.8
2020-Sep-25 06:01N 53°33' E 008°34'2 1.2
2020-Sep-25 04:00N 53°31' E 008°33'0 0.0
2020-Sep-25 00:30N 53°31' E 008°34'0 0.0
2020-Sep-24 17:00N 53°31' E 008°33'0 0.0
2020-Sep-24 16:00N 53°31' E 008°33'0 0.0
2020-Sep-24 15:30N 53°31' E 008°33'0 0.2
2020-Sep-24 14:00N 53°31' E 008°34'172 3.4
2020-Sep-22 10:45N 56°14' E 006°57'4 4.1
2020-Sep-22 09:50N 56°16' E 006°51'2 3.8
2020-Sep-22 09:18N 56°17' E 006°48'6 3.7
2020-Sep-22 07:42N 56°20' E 006°40'8 3.1
2020-Sep-22 05:00N 56°28' E 006°35'17 2.3
2020-Sep-21 21:50N 56°15' E 006°53'2 2.7
2020-Sep-21 21:16N 56°14' E 006°55'2 3.0
2020-Sep-21 20:31N 56°12' E 006°58'10 3.2
2020-Sep-21 17:27N 56°06' E 007°11'4 2.8
2020-Sep-21 16:00N 56°03' E 007°17'6 2.8
2020-Sep-21 14:00N 55°60' E 007°24'2 0.7
2020-Sep-21 10:28N 56°02' E 007°23'23 2.6
2020-Sep-21 01:31N 56°22' E 007°01'2 2.0
2020-Sep-21 00:18N 56°24' E 007°01'2 2.4
2020-Sep-20 23:29N 56°26' E 007°02'12 3.0
2020-Sep-20 19:29N 56°36' E 007°15'2 3.2
2020-Sep-20 19:00N 56°37' E 007°17'3 3.3
2020-Sep-20 18:00N 56°39' E 007°21'2 4.2
2020-Sep-20 17:30N 56°40' E 007°24'2 4.7
2020-Sep-20 17:00N 56°42' E 007°27'2 4.8
2020-Sep-20 16:30N 56°43' E 007°30'2 4.4
2020-Sep-20 16:01N 56°45' E 007°34'8 5.0
2020-Sep-20 14:30N 56°50' E 007°43'8 4.1
2020-Sep-20 12:30N 56°58' E 007°47'2 3.3
2020-Sep-20 12:00N 56°60' E 007°49'2 3.1
2020-Sep-20 11:30N 57°01' E 007°50'3 3.1
2020-Sep-20 10:30N 57°04' E 007°53'12 5.9
2020-Sep-20 08:30N 57°12' E 008°08'9 5.7
2020-Sep-20 07:00N 57°16' E 008°22'6 6.3
2020-Sep-20 06:00N 57°19' E 008°32'35 5.9
2020-Sep-20 00:00N 57°37' E 009°29'22 6.1
2020-Sep-19 20:30N 57°46' E 010°06'10 6.6
2020-Sep-19 19:00N 57°50' E 010°23'10 6.5
2020-Sep-19 17:30N 57°50' E 010°41'6 6.2
2020-Sep-19 16:30N 57°49' E 010°52'15 5.9
2020-Sep-19 14:00N 57°37' E 011°07'18 5.9
2020-Sep-19 11:00N 57°20' E 011°18'3 2.7
2020-Sep-19 10:00N 57°18' E 011°19'6 2.6
2020-Sep-19 07:30N 57°11' E 011°22'2 3.2
2020-Sep-19 07:00N 57°10' E 011°22'48 4.2
2020-Sep-18 19:36N 56°23' E 011°02'2 3.8
2020-Sep-18 18:59N 56°20' E 011°01'15 3.8
2020-Sep-18 15:00N 56°05' E 010°59'7 4.6
2020-Sep-18 13:29N 55°58' E 010°59'36 6.0
2020-Sep-18 07:30N 55°22' E 011°02'4 7.4
2020-Sep-18 07:00N 55°18' E 011°03'14 7.0
2020-Sep-18 05:00N 55°04' E 011°02'15 7.5
2020-Sep-18 03:00N 54°50' E 010°53'10 6.9
2020-Sep-18 01:30N 54°41' E 010°58'4 7.2
2020-Sep-18 01:00N 54°39' E 011°03'27 4.9
2020-Sep-17 19:30N 54°12' E 011°12'  
Track history (hours):
 
Tides and Currents Weather Stations Pressure Air Temp Water Temp Dewpoint Dewpoint Depression Visibility Wind Speed Wind Dir Waves Ship Positions

Alexander von Humboldt II

Ship's website: https://www.alex-2.de/en/

Last reported at 2020-Sep-26 09:29 UTC. Time now 2020-Sep-26 10:06 UTC.
Position N 53°33' E 008°34'.

Length 65 m; draft 4.8 m.

Type: Sailing vessel. MMSI: 218768000.

Date/timePositionNaut miles runAvg speedWind from/ knotsBaromVisibWave heightAir tempDewpointWater temp
2020-Sep-26 09:29N 53°33' E 008°34'0 0.0
2020-Sep-26 07:59N 53°33' E 008°34'0 0.0
2020-Sep-26 07:29N 53°33' E 008°34'0 0.0
2020-Sep-26 06:59N 53°33' E 008°34'0 0.0
2020-Sep-26 06:29N 53°33' E 008°34'0 0.0
2020-Sep-26 05:29N 53°33' E 008°34'0 0.0
2020-Sep-26 00:29N 53°33' E 008°34'0 0.0
2020-Sep-25 23:29N 53°33' E 008°34'0 0.0
2020-Sep-25 20:29N 53°33' E 008°34'0 0.0
2020-Sep-25 19:29N 53°33' E 008°34'0 0.0
2020-Sep-25 14:29N 53°33' E 008°34'0 0.0
2020-Sep-25 13:59N 53°33' E 008°34'0 0.0
2020-Sep-25 13:29N 53°33' E 008°34'0 0.0
2020-Sep-25 08:29N 53°33' E 008°34'0 0.0
2020-Sep-25 07:29N 53°33' E 008°34'0 0.1
2020-Sep-25 07:01N 53°33' E 008°34'1 0.8
2020-Sep-25 06:01N 53°33' E 008°34'2 1.2
2020-Sep-25 04:00N 53°31' E 008°33'0 0.0
2020-Sep-25 00:30N 53°31' E 008°34'0 0.0
2020-Sep-24 17:00N 53°31' E 008°33'0 0.0
2020-Sep-24 16:00N 53°31' E 008°33'0 0.0
2020-Sep-24 15:30N 53°31' E 008°33'0 0.2
2020-Sep-24 14:00N 53°31' E 008°34'172 3.4
2020-Sep-22 10:45N 56°14' E 006°57'4 4.1
2020-Sep-22 09:50N 56°16' E 006°51'2 3.8
2020-Sep-22 09:18N 56°17' E 006°48'6 3.7
2020-Sep-22 07:42N 56°20' E 006°40'8 3.1
2020-Sep-22 05:00N 56°28' E 006°35'17 2.3
2020-Sep-21 21:50N 56°15' E 006°53'2 2.7
2020-Sep-21 21:16N 56°14' E 006°55'2 3.0
2020-Sep-21 20:31N 56°12' E 006°58'10 3.2
2020-Sep-21 17:27N 56°06' E 007°11'4 2.8
2020-Sep-21 16:00N 56°03' E 007°17'6 2.8
2020-Sep-21 14:00N 55°60' E 007°24'2 0.7
2020-Sep-21 10:28N 56°02' E 007°23'23 2.6
2020-Sep-21 01:31N 56°22' E 007°01'2 2.0
2020-Sep-21 00:18N 56°24' E 007°01'2 2.4
2020-Sep-20 23:29N 56°26' E 007°02'12 3.0
2020-Sep-20 19:29N 56°36' E 007°15'2 3.2
2020-Sep-20 19:00N 56°37' E 007°17'3 3.3
2020-Sep-20 18:00N 56°39' E 007°21'2 4.2
2020-Sep-20 17:30N 56°40' E 007°24'2 4.7
2020-Sep-20 17:00N 56°42' E 007°27'2 4.8
2020-Sep-20 16:30N 56°43' E 007°30'2 4.4
2020-Sep-20 16:01N 56°45' E 007°34'8 5.0
2020-Sep-20 14:30N 56°50' E 007°43'8 4.1
2020-Sep-20 12:30N 56°58' E 007°47'2 3.3
2020-Sep-20 12:00N 56°60' E 007°49'2 3.1
2020-Sep-20 11:30N 57°01' E 007°50'3 3.1
2020-Sep-20 10:30N 57°04' E 007°53'12 5.9
2020-Sep-20 08:30N 57°12' E 008°08'9 5.7
2020-Sep-20 07:00N 57°16' E 008°22'6 6.3
2020-Sep-20 06:00N 57°19' E 008°32'35 5.9
2020-Sep-20 00:00N 57°37' E 009°29'22 6.1
2020-Sep-19 20:30N 57°46' E 010°06'10 6.6
2020-Sep-19 19:00N 57°50' E 010°23'10 6.5
2020-Sep-19 17:30N 57°50' E 010°41'6 6.2
2020-Sep-19 16:30N 57°49' E 010°52'15 5.9
2020-Sep-19 14:00N 57°37' E 011°07'18 5.9
2020-Sep-19 11:00N 57°20' E 011°18'3 2.7
2020-Sep-19 10:00N 57°18' E 011°19'6 2.6
2020-Sep-19 07:30N 57°11' E 011°22'2 3.2
2020-Sep-19 07:00N 57°10' E 011°22'48 4.2
2020-Sep-18 19:36N 56°23' E 011°02'2 3.8
2020-Sep-18 18:59N 56°20' E 011°01'15 3.8
2020-Sep-18 15:00N 56°05' E 010°59'7 4.6
2020-Sep-18 13:29N 55°58' E 010°59'36 6.0
2020-Sep-18 07:30N 55°22' E 011°02'4 7.4
2020-Sep-18 07:00N 55°18' E 011°03'14 7.0
2020-Sep-18 05:00N 55°04' E 011°02'15 7.5
2020-Sep-18 03:00N 54°50' E 010°53'10 6.9
2020-Sep-18 01:30N 54°41' E 010°58'4 7.2
2020-Sep-18 01:00N 54°39' E 011°03'27 4.9
2020-Sep-17 19:30N 54°12' E 011°12'  

Dump ship's entire track history